岡山グライダークラブ活動状況掲示板あなたは無料カウンター人目の訪問者です

岡山グライダークラブ
岡山市浦安南町639-1 岡南飛行場
 使用機:シャイベ式 SF25C型 ファルケ   JA2330
      ヴァレンティン式17E型 タイフーン  JA2342
 練習日:毎日曜日  クラブルーム:電話 086-265-1810
この掲示板は岡山グライダークラブの活動状況をお知らせする掲示板です。
!!!この掲示板は投稿規制をしています。!!!
クラブ関連各種情報は 岡山グライダークラブクラブルーム      を       .
  ブリーフイング情報は  岡山グライダークラブブリーフィングルーム  をご覧下さい。 .
※写真はクリックすると拡大して見ることが出来ます。
岡南飛行場へのアクセス等は 岡南飛行場管理事務所 をご覧ください。
クラブの ホームページ ができました。

 
09月06日
by OGC at 2020/9/7(月) 01:57:45 No.20200907015616  削除コメント
1024 x 768 x 71,691バイト
No.1

09月06日
本日の参加者
  会員      16名
  その他      0名


@本日の様子






METAR
RJBK 060000Z 07011KT 30KM FEW030CU 29/23 Q1007 A2976
RJOB 060000Z 09009KT 9999 FEW015 SCT050 27/22 Q1009
RJOT 060000Z 06013KT 9999 FEW008 SCT025 28/24 Q1008
RJOA 060000Z 07011KT 9999 FEW015 SCT160 28/22 Q1008
TAF
RJOB 052311Z 0600/0706 09013KT 9999 FEW020 SCT040
     BECMG 0610/0612 10020G32KT
     TEMPO 0610/0615 4000 SHRA BR
     BECMG 0700/0703 18014KT
RJOT 052308Z 0600/0706 08013KT 9000 -SHRA FEW020 BKN030
     TEMPO 0605/0607 08016G26KT
     TEMPO 0607/0615 08016G26KT 4000 SHRA BR FEW001 SCT003 BKN005
     BECMG 0615/0618 15012KT
RJOA 052313Z 0600/0706 09020KT 9999 FEW020 SCT035
     TEMPO 0609/0618 09023G33KT 4000 SHRA BR FEW003 SCT005 BKN008
     BECMG 0700/0703 15012KT

本日は台風10号の影響で風が拾数KT、15時頃から雷雨に見舞われ、早めにフライトを終了しました。
また、本日、タイフーンも耐空検査に合格し、やっと、2機運用に戻りました。


解散    16:00

1番機  11:00離陸 撤収機  14:40着陸 

SF25C JA2330 ファルケ     04Flt.2h10hmin  
17E   JA2342 タイフーン    03Flt.1h00min  
合計                    07Flt.3h10min

    << 戻る || ホームページ || 最新の掲示板へ